sensor_id;sensor_type;location;lat;lon;timestamp;temperature;humidity
6252;DHT22;3159;52.414;9.784;2023-11-21T00:00:44;10.20;99.90
6252;DHT22;3159;52.414;9.784;2023-11-21T00:03:11;10.10;99.90
6252;DHT22;3159;52.414;9.784;2023-11-21T00:05:40;10.10;99.90
6252;DHT22;3159;52.414;9.784;2023-11-21T00:08:09;10.10;99.90
6252;DHT22;3159;52.414;9.784;2023-11-21T00:10:36;10.10;99.90
6252;DHT22;3159;52.414;9.784;2023-11-21T00:13:04;10.10;99.90
6252;DHT22;3159;52.414;9.784;2023-11-21T00:15:31;10.10;99.90
6252;DHT22;3159;52.414;9.784;2023-11-21T00:17:58;10.20;99.90
6252;DHT22;3159;52.414;9.784;2023-11-21T00:20:24;10.20;99.90
6252;DHT22;3159;52.414;9.784;2023-11-21T00:22:51;10.10;99.90
6252;DHT22;3159;52.414;9.784;2023-11-21T00:25:19;10.00;99.90
6252;DHT22;3159;52.414;9.784;2023-11-21T00:27:46;10.10;99.90
6252;DHT22;3159;52.414;9.784;2023-11-21T00:30:14;10.10;99.90
6252;DHT22;3159;52.414;9.784;2023-11-21T00:32:40;10.10;99.90
6252;DHT22;3159;52.414;9.784;2023-11-21T00:35:08;10.00;99.90
6252;DHT22;3159;52.414;9.784;2023-11-21T00:37:34;10.00;99.90
6252;DHT22;3159;52.414;9.784;2023-11-21T00:40:02;10.00;99.90
6252;DHT22;3159;52.414;9.784;2023-11-21T00:42:33;10.00;99.90
6252;DHT22;3159;52.414;9.784;2023-11-21T00:45:00;10.00;99.90
6252;DHT22;3159;52.414;9.784;2023-11-21T00:47:27;10.00;99.90
6252;DHT22;3159;52.414;9.784;2023-11-21T00:49:54;10.00;99.90
6252;DHT22;3159;52.414;9.784;2023-11-21T00:52:22;10.00;99.90
6252;DHT22;3159;52.414;9.784;2023-11-21T00:54:49;10.10;99.90
6252;DHT22;3159;52.414;9.784;2023-11-21T00:57:15;10.00;99.90
6252;DHT22;3159;52.414;9.784;2023-11-21T00:59:44;9.90;99.90
6252;DHT22;3159;52.414;9.784;2023-11-21T01:02:10;9.90;99.90
6252;DHT22;3159;52.414;9.784;2023-11-21T01:04:37;10.00;99.90
6252;DHT22;3159;52.414;9.784;2023-11-21T01:07:04;10.00;99.90
6252;DHT22;3159;52.414;9.784;2023-11-21T01:09:32;9.90;99.90
6252;DHT22;3159;52.414;9.784;2023-11-21T01:11:58;10.00;99.90
6252;DHT22;3159;52.414;9.784;2023-11-21T01:14:26;10.00;99.90
6252;DHT22;3159;52.414;9.784;2023-11-21T01:16:54;10.10;99.90
6252;DHT22;3159;52.414;9.784;2023-11-21T01:19:21;10.00;99.90
6252;DHT22;3159;52.414;9.784;2023-11-21T01:21:48;9.90;99.90
6252;DHT22;3159;52.414;9.784;2023-11-21T01:24:15;9.90;99.90
6252;DHT22;3159;52.414;9.784;2023-11-21T01:26:42;10.00;99.90
6252;DHT22;3159;52.414;9.784;2023-11-21T01:29:09;10.00;99.90
6252;DHT22;3159;52.414;9.784;2023-11-21T01:31:35;10.00;99.90
6252;DHT22;3159;52.414;9.784;2023-11-21T01:34:03;9.90;99.90
6252;DHT22;3159;52.414;9.784;2023-11-21T01:36:30;9.90;99.90
6252;DHT22;3159;52.414;9.784;2023-11-21T01:38:58;9.90;99.90
6252;DHT22;3159;52.414;9.784;2023-11-21T01:41:25;9.90;99.90
6252;DHT22;3159;52.414;9.784;2023-11-21T01:43:54;9.90;99.90
6252;DHT22;3159;52.414;9.784;2023-11-21T01:46:21;9.80;99.90
6252;DHT22;3159;52.414;9.784;2023-11-21T01:48:48;9.90;99.90
6252;DHT22;3159;52.414;9.784;2023-11-21T01:51:17;9.90;99.90
6252;DHT22;3159;52.414;9.784;2023-11-21T01:53:45;10.00;99.90
6252;DHT22;3159;52.414;9.784;2023-11-21T01:56:12;10.00;99.90
6252;DHT22;3159;52.414;9.784;2023-11-21T01:58:39;10.00;99.90
6252;DHT22;3159;52.414;9.784;2023-11-21T02:01:06;10.00;99.90
6252;DHT22;3159;52.414;9.784;2023-11-21T02:03:34;10.00;99.90
6252;DHT22;3159;52.414;9.784;2023-11-21T02:06:01;9.90;99.90
6252;DHT22;3159;52.414;9.784;2023-11-21T02:08:29;9.90;99.90
6252;DHT22;3159;52.414;9.784;2023-11-21T02:10:57;9.90;99.90
6252;DHT22;3159;52.414;9.784;2023-11-21T02:13:24;10.00;99.90
6252;DHT22;3159;52.414;9.784;2023-11-21T02:15:50;10.00;99.90
6252;DHT22;3159;52.414;9.784;2023-11-21T02:18:19;10.00;99.90
6252;DHT22;3159;52.414;9.784;2023-11-21T02:20:47;10.00;99.90
6252;DHT22;3159;52.414;9.784;2023-11-21T02:23:15;10.00;99.90
6252;DHT22;3159;52.414;9.784;2023-11-21T02:25:43;10.10;99.90
6252;DHT22;3159;52.414;9.784;2023-11-21T02:28:10;10.10;99.90
6252;DHT22;3159;52.414;9.784;2023-11-21T02:30:38;10.10;99.90
6252;DHT22;3159;52.414;9.784;2023-11-21T02:33:05;9.90;99.90
6252;DHT22;3159;52.414;9.784;2023-11-21T02:35:32;9.90;99.90
6252;DHT22;3159;52.414;9.784;2023-11-21T02:38:00;10.00;99.90
6252;DHT22;3159;52.414;9.784;2023-11-21T02:40:28;10.00;99.90
6252;DHT22;3159;52.414;9.784;2023-11-21T02:42:55;9.90;99.90
6252;DHT22;3159;52.414;9.784;2023-11-21T02:45:24;9.90;99.90
6252;DHT22;3159;52.414;9.784;2023-11-21T02:47:51;9.90;99.90
6252;DHT22;3159;52.414;9.784;2023-11-21T02:50:22;9.90;99.90
6252;DHT22;3159;52.414;9.784;2023-11-21T02:52:49;9.90;99.90
6252;DHT22;3159;52.414;9.784;2023-11-21T02:55:16;10.00;99.90
6252;DHT22;3159;52.414;9.784;2023-11-21T02:57:44;10.00;99.90
6252;DHT22;3159;52.414;9.784;2023-11-21T03:00:12;9.90;99.90
6252;DHT22;3159;52.414;9.784;2023-11-21T03:02:40;9.90;99.90
6252;DHT22;3159;52.414;9.784;2023-11-21T03:05:07;10.00;99.90
6252;DHT22;3159;52.414;9.784;2023-11-21T03:07:35;10.00;99.90
6252;DHT22;3159;52.414;9.784;2023-11-21T03:10:03;10.00;99.90
6252;DHT22;3159;52.414;9.784;2023-11-21T03:12:30;10.00;99.90
6252;DHT22;3159;52.414;9.784;2023-11-21T03:14:58;10.00;99.90
6252;DHT22;3159;52.414;9.784;2023-11-21T03:17:25;10.00;99.90
6252;DHT22;3159;52.414;9.784;2023-11-21T03:19:52;10.00;99.90
6252;DHT22;3159;52.414;9.784;2023-11-21T03:22:20;9.90;99.90
6252;DHT22;3159;52.414;9.784;2023-11-21T03:24:46;9.80;99.90
6252;DHT22;3159;52.414;9.784;2023-11-21T03:27:13;9.90;99.90
6252;DHT22;3159;52.414;9.784;2023-11-21T03:29:40;9.90;99.90
6252;DHT22;3159;52.414;9.784;2023-11-21T03:32:08;10.00;99.90
6252;DHT22;3159;52.414;9.784;2023-11-21T03:34:35;10.00;99.90
6252;DHT22;3159;52.414;9.784;2023-11-21T03:37:02;10.00;99.90
6252;DHT22;3159;52.414;9.784;2023-11-21T03:39:28;10.10;99.90
6252;DHT22;3159;52.414;9.784;2023-11-21T03:41:55;10.10;99.90
6252;DHT22;3159;52.414;9.784;2023-11-21T03:44:22;10.10;99.90
6252;DHT22;3159;52.414;9.784;2023-11-21T03:46:49;10.20;99.90
6252;DHT22;3159;52.414;9.784;2023-11-21T03:49:17;10.30;99.90
6252;DHT22;3159;52.414;9.784;2023-11-21T03:51:44;10.10;99.90
6252;DHT22;3159;52.414;9.784;2023-11-21T03:54:10;10.10;99.90
6252;DHT22;3159;52.414;9.784;2023-11-21T03:56:37;10.10;99.90
6252;DHT22;3159;52.414;9.784;2023-11-21T03:59:04;10.10;99.90
6252;DHT22;3159;52.414;9.784;2023-11-21T04:01:31;10.10;99.90
6252;DHT22;3159;52.414;9.784;2023-11-21T04:03:58;10.20;99.90
6252;DHT22;3159;52.414;9.784;2023-11-21T04:06:26;10.10;99.90
6252;DHT22;3159;52.414;9.784;2023-11-21T04:08:53;10.10;99.90
6252;DHT22;3159;52.414;9.784;2023-11-21T04:11:20;10.20;99.90
6252;DHT22;3159;52.414;9.784;2023-11-21T04:13:47;10.20;99.90
6252;DHT22;3159;52.414;9.784;2023-11-21T04:16:13;10.10;99.90
6252;DHT22;3159;52.414;9.784;2023-11-21T04:18:40;10.10;99.90
6252;DHT22;3159;52.414;9.784;2023-11-21T04:21:07;10.00;99.90
6252;DHT22;3159;52.414;9.784;2023-11-21T04:23:35;10.00;99.90
6252;DHT22;3159;52.414;9.784;2023-11-21T04:26:02;10.00;99.90
6252;DHT22;3159;52.414;9.784;2023-11-21T04:28:29;10.00;99.90
6252;DHT22;3159;52.414;9.784;2023-11-21T04:30:56;10.00;99.90
6252;DHT22;3159;52.414;9.784;2023-11-21T04:33:23;9.90;99.90
6252;DHT22;3159;52.414;9.784;2023-11-21T04:35:51;9.90;99.90
6252;DHT22;3159;52.414;9.784;2023-11-21T04:38:17;9.90;99.90
6252;DHT22;3159;52.414;9.784;2023-11-21T04:40:46;9.80;99.90
6252;DHT22;3159;52.414;9.784;2023-11-21T04:43:12;9.80;99.90
6252;DHT22;3159;52.414;9.784;2023-11-21T04:45:39;9.90;99.90
6252;DHT22;3159;52.414;9.784;2023-11-21T04:48:07;9.90;99.90
6252;DHT22;3159;52.414;9.784;2023-11-21T04:50:34;9.80;99.90
6252;DHT22;3159;52.414;9.784;2023-11-21T04:53:00;10.00;99.90
6252;DHT22;3159;52.414;9.784;2023-11-21T04:55:27;9.90;99.90
6252;DHT22;3159;52.414;9.784;2023-11-21T04:57:55;10.00;99.90
6252;DHT22;3159;52.414;9.784;2023-11-21T05:00:22;10.10;99.90
6252;DHT22;3159;52.414;9.784;2023-11-21T05:02:49;10.10;99.90
6252;DHT22;3159;52.414;9.784;2023-11-21T05:05:16;10.20;99.90
6252;DHT22;3159;52.414;9.784;2023-11-21T05:07:44;10.20;99.90
6252;DHT22;3159;52.414;9.784;2023-11-21T05:10:11;10.10;99.90
6252;DHT22;3159;52.414;9.784;2023-11-21T05:12:40;10.10;99.90
6252;DHT22;3159;52.414;9.784;2023-11-21T05:15:09;10.10;99.90
6252;DHT22;3159;52.414;9.784;2023-11-21T05:17:36;10.10;99.90
6252;DHT22;3159;52.414;9.784;2023-11-21T05:20:05;10.00;99.90
6252;DHT22;3159;52.414;9.784;2023-11-21T05:22:34;10.00;99.90
6252;DHT22;3159;52.414;9.784;2023-11-21T05:25:01;10.00;99.90
6252;DHT22;3159;52.414;9.784;2023-11-21T05:27:29;10.00;99.90
6252;DHT22;3159;52.414;9.784;2023-11-21T05:29:56;10.10;99.90
6252;DHT22;3159;52.414;9.784;2023-11-21T05:32:24;10.10;99.90
6252;DHT22;3159;52.414;9.784;2023-11-21T05:34:52;10.20;99.90
6252;DHT22;3159;52.414;9.784;2023-11-21T05:37:19;10.30;99.90
6252;DHT22;3159;52.414;9.784;2023-11-21T05:39:45;10.30;99.90
6252;DHT22;3159;52.414;9.784;2023-11-21T05:42:12;10.40;99.90
6252;DHT22;3159;52.414;9.784;2023-11-21T05:44:41;10.30;99.90
6252;DHT22;3159;52.414;9.784;2023-11-21T05:47:09;10.30;99.90
6252;DHT22;3159;52.414;9.784;2023-11-21T05:49:38;10.20;99.90
6252;DHT22;3159;52.414;9.784;2023-11-21T05:52:05;10.30;99.90
6252;DHT22;3159;52.414;9.784;2023-11-21T05:54:32;10.30;99.90
6252;DHT22;3159;52.414;9.784;2023-11-21T05:56:59;10.20;99.90
6252;DHT22;3159;52.414;9.784;2023-11-21T05:59:26;10.10;99.90
6252;DHT22;3159;52.414;9.784;2023-11-21T06:01:53;10.10;99.90
6252;DHT22;3159;52.414;9.784;2023-11-21T06:04:20;10.20;99.90
6252;DHT22;3159;52.414;9.784;2023-11-21T06:06:51;10.30;99.90
6252;DHT22;3159;52.414;9.784;2023-11-21T06:09:18;10.30;99.90
6252;DHT22;3159;52.414;9.784;2023-11-21T06:11:45;10.30;99.90
6252;DHT22;3159;52.414;9.784;2023-11-21T06:14:11;10.30;99.90
6252;DHT22;3159;52.414;9.784;2023-11-21T06:16:38;10.40;99.90
6252;DHT22;3159;52.414;9.784;2023-11-21T06:19:05;10.40;99.90
6252;DHT22;3159;52.414;9.784;2023-11-21T06:21:32;10.30;99.90
6252;DHT22;3159;52.414;9.784;2023-11-21T06:24:02;10.40;99.90
6252;DHT22;3159;52.414;9.784;2023-11-21T06:26:29;10.40;99.90
6252;DHT22;3159;52.414;9.784;2023-11-21T06:28:57;10.20;99.90
6252;DHT22;3159;52.414;9.784;2023-11-21T06:31:24;9.90;99.90
6252;DHT22;3159;52.414;9.784;2023-11-21T06:33:50;9.70;99.90
6252;DHT22;3159;52.414;9.784;2023-11-21T06:36:18;9.50;99.90
6252;DHT22;3159;52.414;9.784;2023-11-21T06:38:45;9.50;99.90
6252;DHT22;3159;52.414;9.784;2023-11-21T06:41:13;9.40;99.90
6252;DHT22;3159;52.414;9.784;2023-11-21T06:43:41;9.30;99.90
6252;DHT22;3159;52.414;9.784;2023-11-21T06:46:10;9.20;99.90
6252;DHT22;3159;52.414;9.784;2023-11-21T06:48:40;9.00;99.90
6252;DHT22;3159;52.414;9.784;2023-11-21T06:51:07;9.10;99.90
6252;DHT22;3159;52.414;9.784;2023-11-21T06:53:33;9.20;99.90
6252;DHT22;3159;52.414;9.784;2023-11-21T06:56:00;9.10;99.90
6252;DHT22;3159;52.414;9.784;2023-11-21T06:58:28;9.10;99.90
6252;DHT22;3159;52.414;9.784;2023-11-21T07:00:55;9.20;99.90
6252;DHT22;3159;52.414;9.784;2023-11-21T07:03:24;9.10;99.90
6252;DHT22;3159;52.414;9.784;2023-11-21T07:05:51;9.00;99.90
6252;DHT22;3159;52.414;9.784;2023-11-21T07:08:18;9.10;99.90
6252;DHT22;3159;52.414;9.784;2023-11-21T07:10:45;9.10;99.90
6252;DHT22;3159;52.414;9.784;2023-11-21T07:13:12;9.10;99.90
6252;DHT22;3159;52.414;9.784;2023-11-21T07:15:41;9.10;99.90
6252;DHT22;3159;52.414;9.784;2023-11-21T07:18:09;9.20;99.90
6252;DHT22;3159;52.414;9.784;2023-11-21T07:20:35;9.30;99.90
6252;DHT22;3159;52.414;9.784;2023-11-21T07:23:02;9.20;99.90
6252;DHT22;3159;52.414;9.784;2023-11-21T07:25:29;9.20;99.90
6252;DHT22;3159;52.414;9.784;2023-11-21T07:27:57;9.20;99.90
6252;DHT22;3159;52.414;9.784;2023-11-21T07:30:24;9.10;99.90
6252;DHT22;3159;52.414;9.784;2023-11-21T07:32:52;9.20;99.90
6252;DHT22;3159;52.414;9.784;2023-11-21T07:35:19;9.10;99.90
6252;DHT22;3159;52.414;9.784;2023-11-21T07:37:45;9.00;99.90
6252;DHT22;3159;52.414;9.784;2023-11-21T07:40:14;8.90;99.90
6252;DHT22;3159;52.414;9.784;2023-11-21T07:42:42;9.00;99.90
6252;DHT22;3159;52.414;9.784;2023-11-21T07:45:09;9.00;99.90
6252;DHT22;3159;52.414;9.784;2023-11-21T07:47:37;8.90;99.90
6252;DHT22;3159;52.414;9.784;2023-11-21T07:50:07;8.90;99.90
6252;DHT22;3159;52.414;9.784;2023-11-21T07:52:34;8.90;99.90
6252;DHT22;3159;52.414;9.784;2023-11-21T07:55:01;8.90;99.90
6252;DHT22;3159;52.414;9.784;2023-11-21T07:57:29;8.90;99.90
6252;DHT22;3159;52.414;9.784;2023-11-21T07:59:55;8.80;99.90
6252;DHT22;3159;52.414;9.784;2023-11-21T08:02:22;8.80;99.90
6252;DHT22;3159;52.414;9.784;2023-11-21T08:04:49;8.90;99.90
6252;DHT22;3159;52.414;9.784;2023-11-21T08:07:18;8.90;99.90
6252;DHT22;3159;52.414;9.784;2023-11-21T08:09:45;8.90;99.90
6252;DHT22;3159;52.414;9.784;2023-11-21T08:12:14;8.80;99.90
6252;DHT22;3159;52.414;9.784;2023-11-21T08:14:41;8.90;99.90
6252;DHT22;3159;52.414;9.784;2023-11-21T08:17:09;9.00;99.90
6252;DHT22;3159;52.414;9.784;2023-11-21T08:19:36;9.00;99.90
6252;DHT22;3159;52.414;9.784;2023-11-21T08:22:04;8.90;99.90
6252;DHT22;3159;52.414;9.784;2023-11-21T08:24:34;8.90;99.90
6252;DHT22;3159;52.414;9.784;2023-11-21T08:27:01;8.90;99.90
6252;DHT22;3159;52.414;9.784;2023-11-21T08:29:29;8.90;99.90
6252;DHT22;3159;52.414;9.784;2023-11-21T08:31:57;9.00;99.90
6252;DHT22;3159;52.414;9.784;2023-11-21T08:34:24;8.90;99.90
6252;DHT22;3159;52.414;9.784;2023-11-21T08:36:51;8.80;99.90
6252;DHT22;3159;52.414;9.784;2023-11-21T08:39:17;8.80;99.90
6252;DHT22;3159;52.414;9.784;2023-11-21T08:41:46;8.80;99.90
6252;DHT22;3159;52.414;9.784;2023-11-21T08:44:13;8.80;99.90
6252;DHT22;3159;52.414;9.784;2023-11-21T08:46:42;8.90;99.90
6252;DHT22;3159;52.414;9.784;2023-11-21T08:49:10;9.00;99.90
6252;DHT22;3159;52.414;9.784;2023-11-21T08:51:37;9.00;99.90
6252;DHT22;3159;52.414;9.784;2023-11-21T08:54:05;9.10;99.90
6252;DHT22;3159;52.414;9.784;2023-11-21T08:56:33;9.00;99.90
6252;DHT22;3159;52.414;9.784;2023-11-21T08:59:01;9.10;99.90
6252;DHT22;3159;52.414;9.784;2023-11-21T09:01:28;9.00;99.90
6252;DHT22;3159;52.414;9.784;2023-11-21T09:03:56;9.00;99.90
6252;DHT22;3159;52.414;9.784;2023-11-21T09:06:23;8.90;99.90
6252;DHT22;3159;52.414;9.784;2023-11-21T09:08:50;8.90;99.90
6252;DHT22;3159;52.414;9.784;2023-11-21T09:11:17;8.80;99.90
6252;DHT22;3159;52.414;9.784;2023-11-21T09:13:44;8.90;99.90
6252;DHT22;3159;52.414;9.784;2023-11-21T09:16:13;8.80;99.90
6252;DHT22;3159;52.414;9.784;2023-11-21T09:18:41;8.70;99.90
6252;DHT22;3159;52.414;9.784;2023-11-21T09:21:07;8.70;99.90
6252;DHT22;3159;52.414;9.784;2023-11-21T09:23:35;8.70;99.90
6252;DHT22;3159;52.414;9.784;2023-11-21T09:26:01;8.80;99.90
6252;DHT22;3159;52.414;9.784;2023-11-21T09:28:28;8.90;99.90
6252;DHT22;3159;52.414;9.784;2023-11-21T09:30:55;8.90;99.90
6252;DHT22;3159;52.414;9.784;2023-11-21T09:33:23;9.00;99.90
6252;DHT22;3159;52.414;9.784;2023-11-21T09:35:51;8.80;99.90
6252;DHT22;3159;52.414;9.784;2023-11-21T09:38:18;8.90;99.90
6252;DHT22;3159;52.414;9.784;2023-11-21T09:40:45;8.90;99.90
6252;DHT22;3159;52.414;9.784;2023-11-21T09:43:16;8.90;99.90
6252;DHT22;3159;52.414;9.784;2023-11-21T09:45:46;9.00;99.90
6252;DHT22;3159;52.414;9.784;2023-11-21T09:48:14;9.00;99.90
6252;DHT22;3159;52.414;9.784;2023-11-21T09:50:43;9.10;99.90
6252;DHT22;3159;52.414;9.784;2023-11-21T09:53:15;9.10;99.90
6252;DHT22;3159;52.414;9.784;2023-11-21T09:55:45;9.10;99.90
6252;DHT22;3159;52.414;9.784;2023-11-21T09:58:12;9.00;99.90
6252;DHT22;3159;52.414;9.784;2023-11-21T10:00:40;9.00;99.90
6252;DHT22;3159;52.414;9.784;2023-11-21T10:03:08;9.00;99.90
6252;DHT22;3159;52.414;9.784;2023-11-21T10:05:35;9.10;99.90
6252;DHT22;3159;52.414;9.784;2023-11-21T10:08:06;9.10;99.90
6252;DHT22;3159;52.414;9.784;2023-11-21T10:10:33;9.00;99.90
6252;DHT22;3159;52.414;9.784;2023-11-21T10:13:02;9.00;99.90
6252;DHT22;3159;52.414;9.784;2023-11-21T10:15:33;8.90;99.90
6252;DHT22;3159;52.414;9.784;2023-11-21T10:18:02;8.80;99.90
6252;DHT22;3159;52.414;9.784;2023-11-21T10:20:30;8.80;99.90
6252;DHT22;3159;52.414;9.784;2023-11-21T10:22:59;8.90;99.90
6252;DHT22;3159;52.414;9.784;2023-11-21T10:25:29;8.80;99.90
6252;DHT22;3159;52.414;9.784;2023-11-21T10:27:58;8.90;99.90
6252;DHT22;3159;52.414;9.784;2023-11-21T10:30:32;9.10;99.90
6252;DHT22;3159;52.414;9.784;2023-11-21T10:33:02;9.20;99.90
6252;DHT22;3159;52.414;9.784;2023-11-21T10:35:48;9.10;99.90
6252;DHT22;3159;52.414;9.784;2023-11-21T10:38:16;9.00;99.90
6252;DHT22;3159;52.414;9.784;2023-11-21T10:40:44;9.00;99.90
6252;DHT22;3159;52.414;9.784;2023-11-21T10:43:12;9.10;99.90
6252;DHT22;3159;52.414;9.784;2023-11-21T10:45:40;9.10;99.90
6252;DHT22;3159;52.414;9.784;2023-11-21T10:48:08;9.10;99.90
6252;DHT22;3159;52.414;9.784;2023-11-21T10:50:37;9.20;99.90
6252;DHT22;3159;52.414;9.784;2023-11-21T10:53:04;9.20;99.90
6252;DHT22;3159;52.414;9.784;2023-11-21T10:55:32;9.00;99.90
6252;DHT22;3159;52.414;9.784;2023-11-21T10:58:01;9.10;99.90
6252;DHT22;3159;52.414;9.784;2023-11-21T11:00:30;9.20;99.90
6252;DHT22;3159;52.414;9.784;2023-11-21T11:02:57;9.10;99.90
6252;DHT22;3159;52.414;9.784;2023-11-21T11:05:25;9.10;99.90
6252;DHT22;3159;52.414;9.784;2023-11-21T11:08:05;9.10;99.90
6252;DHT22;3159;52.414;9.784;2023-11-21T11:10:32;9.10;99.90
6252;DHT22;3159;52.414;9.784;2023-11-21T11:13:00;9.10;99.90
6252;DHT22;3159;52.414;9.784;2023-11-21T11:15:28;9.10;99.90
6252;DHT22;3159;52.414;9.784;2023-11-21T11:17:55;9.20;99.90
6252;DHT22;3159;52.414;9.784;2023-11-21T11:20:23;9.20;99.90
6252;DHT22;3159;52.414;9.784;2023-11-21T11:22:59;9.10;99.90
6252;DHT22;3159;52.414;9.784;2023-11-21T11:25:45;9.20;99.90
6252;DHT22;3159;52.414;9.784;2023-11-21T11:28:20;9.20;99.90
6252;DHT22;3159;52.414;9.784;2023-11-21T11:30:57;9.40;99.90
6252;DHT22;3159;52.414;9.784;2023-11-21T11:33:34;9.40;99.90
6252;DHT22;3159;52.414;9.784;2023-11-21T11:36:06;9.40;99.90
6252;DHT22;3159;52.414;9.784;2023-11-21T11:38:35;9.40;99.90
6252;DHT22;3159;52.414;9.784;2023-11-21T11:41:03;9.40;99.90
6252;DHT22;3159;52.414;9.784;2023-11-21T11:43:32;9.40;99.90
6252;DHT22;3159;52.414;9.784;2023-11-21T11:46:05;9.40;99.90
6252;DHT22;3159;52.414;9.784;2023-11-21T11:48:37;9.30;99.90
6252;DHT22;3159;52.414;9.784;2023-11-21T11:51:05;9.30;99.90
6252;DHT22;3159;52.414;9.784;2023-11-21T11:53:39;9.20;99.90
6252;DHT22;3159;52.414;9.784;2023-11-21T11:56:24;9.10;99.90
6252;DHT22;3159;52.414;9.784;2023-11-21T11:58:54;9.10;99.90
6252;DHT22;3159;52.414;9.784;2023-11-21T12:01:22;9.20;99.90
6252;DHT22;3159;52.414;9.784;2023-11-21T12:04:24;9.30;99.90
6252;DHT22;3159;52.414;9.784;2023-11-21T12:06:57;9.40;99.90
6252;DHT22;3159;52.414;9.784;2023-11-21T12:09:28;9.30;99.90
6252;DHT22;3159;52.414;9.784;2023-11-21T12:11:57;9.20;99.90
6252;DHT22;3159;52.414;9.784;2023-11-21T12:14:25;9.30;99.90
6252;DHT22;3159;52.414;9.784;2023-11-21T12:16:52;9.20;99.90
6252;DHT22;3159;52.414;9.784;2023-11-21T12:19:19;9.30;99.90
6252;DHT22;3159;52.414;9.784;2023-11-21T12:21:48;9.30;99.90
6252;DHT22;3159;52.414;9.784;2023-11-21T12:24:15;9.40;99.90
6252;DHT22;3159;52.414;9.784;2023-11-21T12:26:43;9.30;99.90
6252;DHT22;3159;52.414;9.784;2023-11-21T12:29:10;9.40;99.90
6252;DHT22;3159;52.414;9.784;2023-11-21T12:31:39;9.30;99.90
6252;DHT22;3159;52.414;9.784;2023-11-21T12:34:07;9.30;99.90
6252;DHT22;3159;52.414;9.784;2023-11-21T12:36:37;9.20;99.90
6252;DHT22;3159;52.414;9.784;2023-11-21T12:39:04;9.20;99.90
6252;DHT22;3159;52.414;9.784;2023-11-21T12:41:31;9.30;99.90
6252;DHT22;3159;52.414;9.784;2023-11-21T12:43:58;9.30;99.90
6252;DHT22;3159;52.414;9.784;2023-11-21T12:46:25;9.40;99.90
6252;DHT22;3159;52.414;9.784;2023-11-21T12:48:56;9.30;99.90
6252;DHT22;3159;52.414;9.784;2023-11-21T12:51:23;9.30;99.90
6252;DHT22;3159;52.414;9.784;2023-11-21T12:53:50;9.30;99.90
6252;DHT22;3159;52.414;9.784;2023-11-21T12:56:18;9.20;99.90
6252;DHT22;3159;52.414;9.784;2023-11-21T12:58:48;9.30;99.90
6252;DHT22;3159;52.414;9.784;2023-11-21T13:01:16;9.20;99.90
6252;DHT22;3159;52.414;9.784;2023-11-21T13:03:46;9.30;99.90
6252;DHT22;3159;52.414;9.784;2023-11-21T13:06:18;9.30;99.90
6252;DHT22;3159;52.414;9.784;2023-11-21T13:08:50;9.30;99.90
6252;DHT22;3159;52.414;9.784;2023-11-21T13:11:17;9.30;99.90
6252;DHT22;3159;52.414;9.784;2023-11-21T13:13:44;9.20;99.90
6252;DHT22;3159;52.414;9.784;2023-11-21T13:16:11;9.30;99.90
6252;DHT22;3159;52.414;9.784;2023-11-21T13:18:38;9.10;99.90
6252;DHT22;3159;52.414;9.784;2023-11-21T13:21:08;9.20;99.90
6252;DHT22;3159;52.414;9.784;2023-11-21T13:23:41;9.10;99.90
6252;DHT22;3159;52.414;9.784;2023-11-21T13:26:08;9.20;99.90
6252;DHT22;3159;52.414;9.784;2023-11-21T13:28:36;9.10;99.90
6252;DHT22;3159;52.414;9.784;2023-11-21T13:31:04;9.20;99.90
6252;DHT22;3159;52.414;9.784;2023-11-21T13:33:41;9.00;99.90
6252;DHT22;3159;52.414;9.784;2023-11-21T13:36:12;9.00;99.90
6252;DHT22;3159;52.414;9.784;2023-11-21T13:38:42;9.00;99.90
6252;DHT22;3159;52.414;9.784;2023-11-21T13:41:11;9.20;99.90
6252;DHT22;3159;52.414;9.784;2023-11-21T13:43:39;9.10;99.90
6252;DHT22;3159;52.414;9.784;2023-11-21T13:46:09;9.20;99.90
6252;DHT22;3159;52.414;9.784;2023-11-21T13:48:40;9.00;99.90
6252;DHT22;3159;52.414;9.784;2023-11-21T13:51:08;9.00;99.90
6252;DHT22;3159;52.414;9.784;2023-11-21T13:53:44;8.90;99.90
6252;DHT22;3159;52.414;9.784;2023-11-21T13:56:13;8.90;99.90
6252;DHT22;3159;52.414;9.784;2023-11-21T13:58:44;8.80;99.90
6252;DHT22;3159;52.414;9.784;2023-11-21T14:01:16;8.80;99.90
6252;DHT22;3159;52.414;9.784;2023-11-21T14:04:03;8.90;99.90
6252;DHT22;3159;52.414;9.784;2023-11-21T14:06:37;8.90;99.90
6252;DHT22;3159;52.414;9.784;2023-11-21T14:09:14;8.90;99.90
6252;DHT22;3159;52.414;9.784;2023-11-21T14:11:49;9.00;99.90
6252;DHT22;3159;52.414;9.784;2023-11-21T14:14:17;8.80;99.90
6252;DHT22;3159;52.414;9.784;2023-11-21T14:16:44;8.80;99.90
6252;DHT22;3159;52.414;9.784;2023-11-21T14:19:11;8.90;99.90
6252;DHT22;3159;52.414;9.784;2023-11-21T14:21:41;8.80;99.90
6252;DHT22;3159;52.414;9.784;2023-11-21T14:24:10;8.90;99.90
6252;DHT22;3159;52.414;9.784;2023-11-21T14:26:40;9.00;99.90
6252;DHT22;3159;52.414;9.784;2023-11-21T14:29:07;8.90;99.90
6252;DHT22;3159;52.414;9.784;2023-11-21T14:31:34;8.90;99.90
6252;DHT22;3159;52.414;9.784;2023-11-21T14:34:01;8.90;99.90
6252;DHT22;3159;52.414;9.784;2023-11-21T14:36:28;8.90;99.90
6252;DHT22;3159;52.414;9.784;2023-11-21T14:38:56;9.00;99.90
6252;DHT22;3159;52.414;9.784;2023-11-21T14:41:22;8.90;99.90
6252;DHT22;3159;52.414;9.784;2023-11-21T14:43:52;8.90;99.90
6252;DHT22;3159;52.414;9.784;2023-11-21T14:46:19;8.80;99.90
6252;DHT22;3159;52.414;9.784;2023-11-21T14:48:46;8.60;99.90
6252;DHT22;3159;52.414;9.784;2023-11-21T14:51:24;8.70;99.90
6252;DHT22;3159;52.414;9.784;2023-11-21T14:53:57;8.80;99.90
6252;DHT22;3159;52.414;9.784;2023-11-21T14:56:26;8.90;99.90
6252;DHT22;3159;52.414;9.784;2023-11-21T14:58:57;8.80;99.90
6252;DHT22;3159;52.414;9.784;2023-11-21T15:01:31;8.80;99.90
6252;DHT22;3159;52.414;9.784;2023-11-21T15:04:10;8.80;99.90
6252;DHT22;3159;52.414;9.784;2023-11-21T15:06:48;8.70;99.90
6252;DHT22;3159;52.414;9.784;2023-11-21T15:09:14;8.70;99.90
6252;DHT22;3159;52.414;9.784;2023-11-21T15:12:01;8.70;99.90
6252;DHT22;3159;52.414;9.784;2023-11-21T15:14:36;8.70;99.90
6252;DHT22;3159;52.414;9.784;2023-11-21T15:17:03;8.70;99.90
6252;DHT22;3159;52.414;9.784;2023-11-21T15:19:30;8.70;99.90
6252;DHT22;3159;52.414;9.784;2023-11-21T15:21:57;8.70;99.90
6252;DHT22;3159;52.414;9.784;2023-11-21T15:24:24;8.70;99.90
6252;DHT22;3159;52.414;9.784;2023-11-21T15:26:51;8.80;99.90
6252;DHT22;3159;52.414;9.784;2023-11-21T15:29:19;8.70;99.90
6252;DHT22;3159;52.414;9.784;2023-11-21T15:31:48;8.70;99.90
6252;DHT22;3159;52.414;9.784;2023-11-21T15:34:15;8.60;99.90
6252;DHT22;3159;52.414;9.784;2023-11-21T15:36:42;8.60;99.90
6252;DHT22;3159;52.414;9.784;2023-11-21T15:39:09;8.50;99.90
6252;DHT22;3159;52.414;9.784;2023-11-21T15:41:37;8.60;99.90
6252;DHT22;3159;52.414;9.784;2023-11-21T15:44:05;8.70;99.90
6252;DHT22;3159;52.414;9.784;2023-11-21T15:46:35;8.70;99.90
6252;DHT22;3159;52.414;9.784;2023-11-21T15:49:04;8.70;99.90
6252;DHT22;3159;52.414;9.784;2023-11-21T15:51:38;8.70;99.90
6252;DHT22;3159;52.414;9.784;2023-11-21T15:54:05;8.70;99.90
6252;DHT22;3159;52.414;9.784;2023-11-21T15:56:33;8.80;99.90
6252;DHT22;3159;52.414;9.784;2023-11-21T15:59:01;8.80;99.90
6252;DHT22;3159;52.414;9.784;2023-11-21T16:01:28;8.70;99.90
6252;DHT22;3159;52.414;9.784;2023-11-21T16:03:54;8.80;99.90
6252;DHT22;3159;52.414;9.784;2023-11-21T16:06:22;8.70;99.90
6252;DHT22;3159;52.414;9.784;2023-11-21T16:08:49;8.70;99.90
6252;DHT22;3159;52.414;9.784;2023-11-21T16:11:16;8.60;99.90
6252;DHT22;3159;52.414;9.784;2023-11-21T16:13:43;8.60;99.90
6252;DHT22;3159;52.414;9.784;2023-11-21T16:16:11;8.60;99.90
6252;DHT22;3159;52.414;9.784;2023-11-21T16:18:38;8.60;99.90